Argyle, Iowa
Current Conditions -  °F | °C
As of 7:35 AM on Monday 24 Nov 2014 (Local Time) from KEOK Reporting Station
Overcast Overcast  
Wind Chill: 20°   Ceiling: 1700
Heat Index: 32°   Visibility: 10mi
Dew Point: 28°   Wind: 20mph
Humidity: 87%   Direction: 270°W
Pressure: 29.44"   Gusts: 35mph
Location:  40.53°N, 91.57°W
Report Text: KEOK 241335Z AUTO 27017G30KT 10SM OVC017 00/M02 A2944 RMK AO2
Loading
Personal Weather Stations






























Interactive Weather Map New forecast layout! Learn more

10-Day Weather Forecast

Advertisements
Track Severe Weather on mobile